Riverside, Oregon
Current Conditions -  °F | °C
As of 10:53 PM on Thursday 18 Dec 2014 (Local Time) from KBNO Reporting Station
Overcast Overcast  
Wind Chill: 31°   Ceiling: 5000
Heat Index: 35°   Visibility: 10mi
Dew Point: 31°   Wind: 5mph
Humidity: 85%   Direction: 40°NE
Pressure: 30.01"   Gusts: NA
Location:  43.54°N, 118.16°W
Report Text: KBNO 190653Z AUTO 04004KT 10SM BKN050 BKN070 OVC100 02/M01 A3001 RMK AO2 SLP175 T00171006
Loading
Personal Weather Stations






























Interactive Weather Map New forecast layout! Learn more

10-Day Weather Forecast

Advertisements
Track Severe Weather on mobile